Latest Weather Observations for Port Hedland

IDW60801

Issued at 12:05 pm WST Wednesday 3 September 2014 (issued every 30 minutes, with the page automatically refreshed every 10 minutes)

About weather observations | Map of weather stations | Latest weather observations for WA | Other Formats
Station Details ID: 004032 Name: PORT HEDLAND AIRPORT Lat: -20.37 Lon: 118.63 Height: 6.4 m
Data from the previous 72 hours. | See also: Recent months at Port Hedland
Date/Time
WST
Temp
°C
App
Temp
°C
Dew
Point
Rel
Hum
%
Delta-T
°C
Wind Press
QNH
hPa
Press
MSL
hPa
Rain
since 9 am
mm
Dir
 
Spd
km/h
Gust
km/h
Spd
kts
Gust
kts
03/12:00pm 34.8 29.5 -0.7 10 17.3 NNW 17 24 9 13 1014.7 - 0.0
03/11:30am 33.7 29.6 4.4 16 15.4 NNE 15 19 8 10 1015.2 - 0.0
03/11:00am 33.5 29.2 0.8 12 16.2 NNE 13 15 7 8 1015.6 - 0.0
03/10:30am 31.9 28.6 2.2 15 14.9 NE 9 13 5 7 1016.1 - 0.0
03/10:00am 29.9 27.6 5.8 22 12.7 NNE 7 9 4 5 1016.5 - 0.0
03/09:30am 27.3 24.3 4.0 22 11.7 NNE 9 13 5 7 1016.6 - 0.0
03/09:00am 27.5 25.5 2.3 19 12.3 W 2 7 1 4 1016.7 1016.7 0.0
03/08:30am 24.2 23.0 4.4 27 9.8 CALM 0 6 0 3 1016.8 - 0.0
03/08:00am 21.3 19.8 5.0 34 8.0 SW 2 7 1 4 1016.8 - 0.0
03/07:30am 17.0 16.4 7.4 53 4.8 CALM 0 0 0 0 1016.5 - 0.0
03/07:00am 14.0 13.6 8.2 68 2.9 CALM 0 0 0 0 1016.2 - 0.0
03/06:30am 11.3 9.4 6.9 74 2.1 SW 6 9 3 5 1016.1 - 0.0
03/06:00am 12.3 11.6 6.9 69 2.6 S 0 0 0 0 1015.8 1015.8 0.0
03/05:30am 11.7 11.1 7.6 76 2.0 CALM 0 0 0 0 1015.6 - 0.0
03/05:00am 12.6 11.2 7.2 69 2.6 SW 4 6 2 3 1015.4 - 0.0
03/04:30am 12.8 11.1 7.5 70 2.6 SW 6 6 3 3 1015.2 - 0.0
03/04:00am 12.7 11.0 8.3 74 2.2 SW 7 9 4 5 1015.1 - 0.0
03/03:30am 14.6 12.0 7.7 63 3.4 SSW 11 11 6 6 1015.1 - 0.0
03/03:00am 14.8 12.4 8.7 67 3.1 SSW 11 11 6 6 1015.2 1015.2 0.0
03/02:30am 14.6 12.8 9.5 71 2.6 SSW 9 11 5 6 1015.3 - 0.0
03/02:00am 14.8 12.8 10.2 74 2.4 SSW 11 13 6 7 1015.4 - 0.0
03/01:30am 14.8 13.4 10.8 77 2.1 SSW 9 11 5 6 1015.5 - 0.0
03/01:00am 15.4 14.1 11.3 76 2.2 SSW 9 11 5 6 1015.7 - 0.0
03/12:30am 16.0 14.8 12.7 81 1.8 SSW 11 13 6 7 1015.9 - 0.0
03/12:00am 16.0 15.0 13.5 85 1.4 SW 11 11 6 6 1016.1 1016.1 0.0
 
Date/Time
WST
Temp
°C
App
Temp
°C
Dew
Point
Rel
Hum
%
Delta-T
°C
Wind Press
QNH
hPa
Press
MSL
hPa
Rain
since 9 am
mm
Dir
 
Spd
km/h
Gust
km/h
Spd
kts
Gust
kts
02/11:30pm 16.4 15.8 14.7 90 1.0 SW 11 13 6 7 1016.3 - 0.0
02/11:00pm 15.8 14.4 14.4 91 0.8 WSW 15 15 8 8 1016.3 - 0.0
02/10:30pm 16.3 15.2 14.4 88 1.1 W 13 15 7 8 1016.4 - 0.0
02/10:00pm 16.9 15.4 14.3 85 1.5 WSW 15 15 8 8 1016.4 - 0.0
02/09:30pm 17.3 16.2 14.3 82 1.7 WSW 13 15 7 8 1016.3 - 0.0
02/09:00pm 18.5 17.8 15.3 81 1.9 W 13 15 7 8 1016.2 1016.2 0.0
02/08:30pm 18.2 16.2 12.6 70 3.1 WNW 15 17 8 9 1016.1 - 0.0
02/08:00pm 18.7 16.6 12.4 67 3.5 WNW 15 17 8 9 1015.8 - 0.0
02/07:30pm 19.5 17.4 12.5 64 3.9 WNW 15 17 8 9 1015.5 - 0.0
02/07:00pm 20.5 18.2 11.9 57 4.8 WNW 15 17 8 9 1015.2 - 0.0
02/06:30pm 21.4 19.0 10.1 48 6.1 WNW 13 15 7 8 1015.0 - 0.0
02/06:00pm 24.2 21.9 9.0 38 8.2 WNW 11 13 6 7 1014.7 1014.7 0.0
02/05:30pm 27.8 23.7 4.3 22 11.9 NW 15 20 8 11 1014.4 - 0.0
02/05:00pm 30.1 24.6 -2.4 12 14.9 NW 17 20 9 11 1014.3 - 0.0
02/04:30pm 31.8 25.7 -7.3 7 16.7 NW 17 19 9 10 1014.1 - 0.0
02/04:00pm 32.5 27.0 -5.3 8 16.8 NW 15 19 8 10 1014.1 - 0.0
02/03:30pm 33.3 27.8 -5.6 8 17.3 NW 15 20 8 11 1013.9 - 0.0
02/03:00pm 33.5 27.4 -7.5 7 17.7 NW 17 22 9 12 1013.9 1013.9 0.0
02/02:30pm 34.5 28.8 -7.6 6 18.3 NW 15 20 8 11 1014.1 - 0.0
02/02:00pm 33.5 27.0 -8.2 6 17.8 NW 19 22 10 12 1014.4 - 0.0
02/01:30pm 33.3 27.0 -6.2 7 17.4 NW 19 26 10 14 1014.8 - 0.0
02/01:00pm 32.2 27.4 2.5 15 15.0 NNW 17 22 9 12 1015.4 - 0.0
02/12:30pm 32.6 27.5 1.0 13 15.6 N 17 20 9 11 1015.7 - 0.0
02/12:00pm 31.9 26.4 0.5 13 15.3 N 19 24 10 13 1016.0 1016.0 0.0
02/11:30am 32.1 26.8 -0.3 12 15.6 N 17 20 9 11 1016.5 - 0.0
02/11:00am 31.4 27.2 3.7 17 14.2 NNE 15 17 8 9 1017.0 - 0.0
02/10:30am 30.3 26.2 2.0 16 14.0 N 13 17 7 9 1017.2 - 0.0
02/10:00am 29.7 25.4 1.0 15 13.9 NNE 13 15 7 8 1017.4 - 0.0
02/09:30am 28.0 24.6 1.8 18 12.7 NE 9 13 5 7 1017.5 - 0.0
02/09:00am 25.6 22.7 4.4 25 10.6 NNE 9 11 5 6 1017.3 1017.3 0.0
02/08:30am 25.1 22.9 5.1 27 10.1 E 6 7 3 4 1017.1 - 0.0
02/08:00am 21.8 19.5 5.8 35 8.0 NE 7 9 4 5 1016.8 - 0.0
02/07:30am 18.9 18.3 8.9 52 5.2 ENE 2 6 1 3 1016.5 - 0.0
02/07:00am 15.5 13.5 6.2 54 4.5 E 6 7 3 4 1016.1 - 0.0
02/06:30am 13.7 11.2 4.6 54 4.2 ESE 7 9 4 5 1015.7 - 0.0
02/06:00am 12.7 10.1 4.3 56 3.8 SE 7 7 4 4 1015.4 1015.4 0.0
02/05:30am 13.1 10.8 4.6 56 3.9 S 6 7 3 4 1015.1 - 0.0
02/05:00am 14.5 11.5 4.3 50 4.7 S 9 11 5 6 1014.8 - 0.0
02/04:30am 13.6 11.2 7.2 65 3.1 SSW 9 9 5 5 1014.8 - 0.0
02/04:00am 14.0 11.0 6.0 58 3.8 SSW 11 15 6 8 1014.7 - 0.0
02/03:30am 13.7 11.1 6.1 60 3.6 S 9 11 5 6 1014.6 - 0.0
02/03:00am 14.1 11.6 6.4 60 3.7 S 9 11 5 6 1014.7 1014.7 0.0
02/02:30am 14.7 12.0 7.2 61 3.7 S 11 13 6 7 1014.9 - 0.0
02/02:00am 15.6 12.6 7.6 59 4.0 S 13 15 7 8 1015.1 - 0.0
02/01:30am 15.9 13.1 8.4 61 3.8 S 13 17 7 9 1015.2 - 0.0
02/01:00am 16.1 13.1 9.3 64 3.5 SSW 15 19 8 10 1015.3 - 0.0
02/12:30am 16.0 13.3 10.3 69 3.0 SSW 15 19 8 10 1015.5 - 0.0
02/12:00am 15.7 13.4 10.6 71 2.7 S 13 17 7 9 1015.6 1015.6 0.0
 
Date/Time
WST
Temp
°C
App
Temp
°C
Dew
Point
Rel
Hum
%
Delta-T
°C
Wind Press
QNH
hPa
Press
MSL
hPa
Rain
since 9 am
mm
Dir
 
Spd
km/h
Gust
km/h
Spd
kts
Gust
kts
01/11:30pm 16.9 15.6 12.4 75 2.5 S 11 15 6 8 1015.8 - 0.0
01/11:00pm 17.4 17.0 14.1 81 1.9 S 9 13 5 7 1015.9 - 0.0
01/10:30pm 17.2 17.0 13.5 79 2.1 S 7 9 4 5 1015.9 - 0.0
01/10:00pm 17.3 17.1 13.6 79 2.1 WSW 7 7 4 4 1015.8 - 0.0
01/09:30pm 18.3 18.9 15.4 83 1.7 WSW 6 7 3 4 1015.7 - 0.0
01/09:00pm 18.4 18.6 14.6 78 2.2 WSW 7 9 4 5 1015.7 1015.7 0.0
01/08:30pm 19.0 18.2 13.9 72 2.9 W 11 11 6 6 1015.6 - 0.0
01/08:00pm 19.0 16.9 12.4 65 3.7 WNW 15 17 8 9 1015.2 - 0.0
01/07:30pm 20.0 19.0 13.5 66 3.7 W 11 13 6 7 1014.8 - 0.0
01/07:00pm 20.5 19.1 13.3 63 4.1 NW 13 15 7 8 1014.4 - 0.0
01/06:30pm 21.5 19.5 12.7 57 5.0 NW 15 15 8 8 1014.1 - 0.0
01/06:00pm 23.6 21.5 9.6 41 7.6 NNW 11 13 6 7 1013.9 1013.9 0.0
01/05:30pm 27.1 24.0 7.1 28 10.6 NW 13 15 7 8 1013.6 - 0.0
01/05:00pm 29.2 24.7 2.3 18 13.3 NNW 15 17 8 9 1013.5 - 0.0
01/04:30pm 30.7 25.2 1.8 15 14.3 N 20 26 11 14 1012.9 - 0.0
01/04:00pm 30.0 24.6 4.4 19 13.2 N 22 30 12 16 1012.6 - 0.0
01/03:30pm 31.1 24.6 -2.5 11 15.5 NNW 22 28 12 15 1013.1 - 0.0
01/03:00pm 31.5 25.6 -0.9 12 15.4 N 20 26 11 14 1013.3 1013.3 0.0
01/02:30pm 30.9 25.6 1.9 15 14.4 NNW 19 22 10 12 1013.5 - 0.0
01/02:00pm 30.7 26.6 8.7 25 12.2 N 20 24 11 13 1014.0 - 0.0
01/01:30pm 31.1 27.3 7.4 22 12.9 N 17 20 9 11 1014.4 - 0.0
01/01:00pm 32.4 28.1 3.0 15 15.0 N 15 19 8 10 1014.5 - 0.0
01/12:30pm 32.0 28.7 6.3 20 13.8 N 13 17 7 9 1014.8 - 0.0
01/12:00pm 29.7 27.2 11.0 31 10.7 N 15 19 8 10 1015.3 1015.3 0.0
01/11:30am 29.3 27.0 10.4 31 10.7 N 13 17 7 9 1015.8 - 0.0
01/11:00am 27.6 25.6 14.0 43 8.1 NNE 17 20 9 11 1016.0 - 0.0
01/10:30am 26.1 24.0 13.5 45 7.4 NNE 17 24 9 13 1016.4 - 0.0
01/10:00am 26.7 23.7 9.2 33 9.6 NNE 15 20 8 11 1016.5 - 0.0
01/09:30am 25.8 22.0 4.1 24 10.8 N 13 17 7 9 1016.5 - 0.0
01/09:00am 25.2 22.4 5.0 27 10.2 NNE 9 13 5 7 1016.4 1016.4 0.0
01/08:30am 25.1 22.2 2.8 23 10.8 NE 7 11 4 6 1016.1 - 0.0
01/08:00am 23.8 20.2 0.9 22 10.6 SE 9 13 5 7 1015.7 - 0.0
01/07:30am 19.7 15.5 -0.9 25 8.9 SSE 11 15 6 8 1015.2 - 0.0
01/07:00am 17.0 13.3 -0.3 31 7.4 S 9 13 5 7 1015.0 - 0.0
01/06:30am 12.6 10.3 0.3 43 5.1 S 2 7 1 4 1014.6 - 0.0
01/06:00am 15.5 11.3 -1.2 32 6.9 S 11 13 6 7 1014.3 1014.3 0.0
01/05:30am 14.8 10.7 -0.2 36 6.3 S 11 13 6 7 1014.1 - 0.0
01/05:00am 15.7 10.7 -1.2 31 7.0 S 15 20 8 11 1013.8 - 0.0
01/04:30am 15.7 10.8 -0.8 32 6.9 S 15 17 8 9 1013.6 - 0.0
01/04:00am 15.5 10.3 -0.1 34 6.6 S 17 22 9 12 1013.4 - 0.0
01/03:30am 15.6 10.5 0.8 36 6.4 S 17 19 9 10 1013.4 - 0.0
01/03:00am 14.1 10.6 3.5 49 4.8 S 11 15 6 8 1013.6 1013.6 0.0
01/02:30am 15.0 11.8 5.0 51 4.7 S 11 13 6 7 1013.6 - 0.0
01/02:00am 15.6 12.1 5.3 50 4.9 S 13 17 7 9 1013.9 - 0.0
01/01:30am 15.7 12.5 6.7 55 4.4 S 13 15 7 8 1014.1 - 0.0
01/01:00am 15.6 13.2 8.5 62 3.6 S 11 13 6 7 1014.4 - 0.0
01/12:30am 15.4 12.9 9.6 68 3.0 SSW 13 15 7 8 1014.6 - 0.0
01/12:00am 16.1 13.6 9.8 66 3.3 SSW 13 15 7 8 1014.7 1014.7 0.0
 
Date/Time
WST
Temp
°C
App
Temp
°C
Dew
Point
Rel
Hum
%
Delta-T
°C
Wind Press
QNH
hPa
Press
MSL
hPa
Rain
since 9 am
mm
Dir
 
Spd
km/h
Gust
km/h
Spd
kts
Gust
kts
31/11:30pm 16.0 13.8 10.9 72 2.7 SSW 13 13 7 7 1014.7 - 0.0
31/11:00pm 16.7 14.9 12.1 74 2.5 SW 13 15 7 8 1015.0 - 0.0
31/10:30pm 17.1 15.5 12.8 76 2.4 SSW 13 13 7 7 1015.0 - 0.0
31/10:00pm 17.4 16.3 13.1 76 2.4 SW 11 11 6 6 1015.1 - 0.0
31/09:30pm 17.6 17.0 14.5 82 1.8 SW 11 13 6 7 1015.2 - 0.0
31/09:00pm 17.5 16.7 15.1 86 1.4 WSW 13 13 7 7 1015.0 1015.0 0.0
31/08:30pm 18.0 17.3 15.4 85 1.5 WSW 13 13 7 7 1014.8 - 0.0
31/08:00pm 18.9 19.0 15.5 80 2.0 W 9 9 5 5 1014.4 - 0.0
31/07:30pm 19.6 19.7 15.5 77 2.4 W 9 11 5 6 1014.1 - 0.0
31/07:00pm 19.9 19.0 14.8 72 3.0 W 13 13 7 7 1013.8 - 0.0
31/06:30pm 21.0 20.0 14.7 67 3.7 WNW 13 15 7 8 1013.4 - 0.0
31/06:00pm 23.2 21.9 12.5 51 6.1 NW 11 13 6 7 1013.4 1013.4 0.0
31/05:30pm 26.5 23.8 10.2 36 9.1 NNW 15 19 8 10 1013.1 - 0.0
31/05:00pm 28.9 25.1 7.6 26 11.5 N 17 22 9 12 1013.0 - 0.0
31/04:30pm 30.1 25.4 5.2 20 13.0 N 19 24 10 13 1013.0 - 0.0
31/04:00pm 30.4 25.9 7.1 23 12.6 NNW 20 26 11 14 1013.0 - 0.0
31/03:30pm 30.9 25.8 6.1 21 13.2 NNW 22 26 12 14 1012.9 - 0.0
31/03:00pm 32.1 28.0 7.8 22 13.4 NNW 19 26 10 14 1012.9 1012.9 0.0
31/02:30pm 32.5 27.7 5.4 18 14.4 NNW 20 26 11 14 1013.0 - 0.0
31/02:00pm 33.0 27.4 1.3 13 15.8 NNW 20 28 11 15 1013.2 - 0.0
31/01:30pm 32.2 26.8 2.2 15 15.1 N 20 24 11 13 1013.6 - 0.0
31/01:00pm 32.9 27.0 -2.3 10 16.5 NNE 19 24 10 13 1013.9 - 0.0
31/12:30pm 32.9 26.9 -2.9 10 16.6 NNE 19 22 10 12 1014.3 - 0.0

Other Formats:

Comma delimited format used in spreadsheet applications
http://www.bom.gov.au/fwo/IDW60801/IDW60801.94312.axf

JavaScript Object Notation format (JSON) in row-major order
http://www.bom.gov.au/fwo/IDW60801/IDW60801.94312.json